KCCB

Details ICAO KCCB
Name CABLE
Region United States
Timezone America/Los_Angeles (UTC-7.0)
Plans Departing 11
Arriving 9
Stats Elevation 1,444 ft / 440 m (AMSL)
Location 34.111607° -117.687382°
Runways 1
Magnetic Variation 11.853° E
Sunrise 2018-05-22 12:45:57 UTC / 2018-05-22 05:45:57 Local
Sunset 2018-05-23 02:51:47 UTC / 2018-05-22 19:51:47 Local
Advertisement - Login to hide

Runways

ID Width Length Bearing (true) Bearing (mag) Surface Threshold Offset Overrun Length
06 75 ft / 23 m 3,858 ft / 1,176 m 69.05° 57.20° Asphalt 106 ft / 32 m 0 ft / 0 m
24 75 ft / 23 m 3,858 ft / 1,176 m 249.05° 237.20° Asphalt 158 ft / 48 m 0 ft / 0 m

Map

Weather


0- 5 10 15 20 25 30 35+ Temperature / ° C

Clouds and Precipitation
Forecast for 2018-05-22 18:00 UTC. Updated 3 hours ago

Ground ~20,000 ft ~40,000 ft Winds

METAR

KCCB 222015Z AUTO 25008KT 10SM OVC021 16/10 A2992 RMK AO2

TAF

Not found

Frequencies

Unicom 123.00 MHz CTAF/UNICOM
Approach 125.50 MHz SOCAL APP/DEP
Warning: Do not use this data for real-world aviation or navigation. No guarantee of current accuracy is given.